Aérodrome :
LOGIN :

S'inscrire | Disclaimer

   EN    FR    IT 

 










Légende :    VFR   VFR Marginal   IFR   IFR Intensif   IFR Très Intensif
Visi : 
Plafond : 
>= 8 km
>= 3000ft
5 à 8 km
1000 à 3000 ft
1500m à 5 km
500 à 1000 ft
800 à 1500m
200 à 500 ft
< 800m
< 200 ft
Symboles :   Orages  Brouillard  Fortes neiges  Fortes précipitations  Vent > 20 kt
SIGMETs :   Divers  Orages  Givrage  Turbulence  Onde Orograph.  Cendres Volcan.






- Altitude de l'aérodrome : 36 ft
- Code IATA : LTQ


LFAT - Le Touquet

DERNIER METAR :
  • 041730Z AUTO 17009KT 140V200 9999 OVC036/// ///TCU 05/02 Q0984 BECMG SCT015 BKN025

METARs EXPIRÉS :
  • 041700Z AUTO 18010KT 140V200 9999 BKN035/// OVC041/// ///CB 06/02 Q0983 BECMG SCT015 BKN025
  • 041630Z AUTO 18008KT 150V220 9999 BKN028/// BKN037/// OVC170/// ///TCU 06/02 Q0983 BECMG SCT015 BKN025
  • 041600Z AUTO 22006KT 170V270 9999 BKN019/// BKN028/// BKN044/// ///TCU 06/04 Q0982 TEMPO 20017G27KT 3000 SHRAGS BKN013CB
  • 041530Z AUTO 24010KT 210V270 9999 SCT019/// BKN031/// BKN046/// ///TCU 06/03 Q0982 TEMPO 20017G27KT 3000 SHRAGS BKN013CB
  • 041500Z AUTO 22013KT 190V250 9999 -RA SCT018/// BKN025/// BKN032/// ///TCU 06/03 Q0982 TEMPO 20017G27KT 3000 SHRAGS BKN013CB

TAF TAF LFAT
Valide du 04 à 15h jusqu'au 05 à 00h UTC


041400Z 0415/0424 22015KT 9999 SCT015 BKN025
TEMPO 0415/0417 20017G27KT 3000 SHRAGS BKN013CB
BECMG 0417/0420 16013KT
ATIS : +33 3 21 06 62 84



MET'MAP, la Météo Aéronautique d'un coup d'oeil ! - Copyright ORBIFLY Décembre 2007 - Disclaimer

ORBIFLY MET'MAP TEAM :

Programmation & Développement : Alexandra Zaïnal
Sur une idée originale de : Baudouin d'Aumeries
Assistance à la programmation : Marc-Olivier Méhu
Soutien technique & logistique : Manuel Goepfert

Contact : metmap@orbifly.com




SOURCES & CREDITS :

   NOAA